createdAt,value
2022-12-03T00:00:48.450Z,100458.94
2022-12-03T00:03:15.577Z,100460.63
2022-12-03T00:05:48.906Z,100469.34
2022-12-03T00:08:16.600Z,100466.75
2022-12-03T00:10:45.088Z,100461.44
2022-12-03T00:13:13.295Z,100456.19
2022-12-03T00:15:40.301Z,100459.81
2022-12-03T00:18:09.720Z,100459.75
2022-12-03T00:20:36.677Z,100459.75
2022-12-03T00:23:05.252Z,100462.34
2022-12-03T00:25:33.284Z,100464.84
2022-12-03T00:28:00.712Z,100457.84
2022-12-03T00:30:29.248Z,100457.97
2022-12-03T00:32:56.686Z,100459.63
2022-12-03T00:35:24.091Z,100458.91
2022-12-03T00:37:51.138Z,100455.47
2022-12-03T00:40:18.466Z,100466.75
2022-12-03T00:42:45.647Z,100463.25
2022-12-03T00:45:13.075Z,100465.78
2022-12-03T00:47:41.403Z,100468.44
2022-12-03T00:50:10.259Z,100461.44
2022-12-03T00:52:38.380Z,100468.25
2022-12-03T00:55:06.127Z,100469.22
2022-12-03T00:57:33.244Z,100455.44
2022-12-03T01:00:07.431Z,100461.44
2022-12-03T01:02:34.815Z,100451.16
2022-12-03T01:05:06.282Z,100457.22
2022-12-03T01:07:33.497Z,100454.63
2022-12-03T01:10:00.843Z,100451.03
2022-12-03T01:12:28.267Z,100451.97
2022-12-03T01:14:55.952Z,100447.44
2022-12-03T01:17:23.126Z,100442.31
2022-12-03T01:19:52.776Z,100445.84
2022-12-03T01:22:20.089Z,100441.50
2022-12-03T01:24:54.101Z,100447.63
2022-12-03T01:27:21.673Z,100440.81
2022-12-03T01:29:48.640Z,100446.75
2022-12-03T01:32:19.784Z,100450.25
2022-12-03T01:34:49.996Z,100450.34
2022-12-03T01:37:17.881Z,100453.56
2022-12-03T01:39:45.203Z,100455.38
2022-12-03T01:42:27.462Z,100449.16
2022-12-03T01:44:57.851Z,100447.44
2022-12-03T01:47:36.110Z,100447.47
2022-12-03T01:50:15.815Z,100448.31
2022-12-03T01:52:43.009Z,100430.94
2022-12-03T01:55:20.858Z,100443.97
2022-12-03T01:57:54.195Z,100445.63
2022-12-03T02:00:27.100Z,100441.50
2022-12-03T02:02:57.421Z,100448.44
2022-12-03T02:05:27.653Z,100443.38
2022-12-03T02:07:57.460Z,100438.16
2022-12-03T02:10:36.339Z,100441.63
2022-12-03T02:13:11.354Z,100439.00
2022-12-03T02:15:40.229Z,100436.25
2022-12-03T02:18:13.319Z,100440.81
2022-12-03T02:21:12.141Z,100432.03
2022-12-03T02:24:08.057Z,100421.66
2022-12-03T02:26:36.314Z,100417.34
2022-12-03T02:29:03.796Z,100425.97
2022-12-03T02:31:32.306Z,100412.06
2022-12-03T02:33:59.773Z,100426.13
2022-12-03T02:36:28.229Z,100419.25
2022-12-03T02:39:04.485Z,100414.78
2022-12-03T02:41:50.354Z,100428.47
2022-12-03T02:44:17.696Z,100428.47
2022-12-03T02:46:48.706Z,100426.00
2022-12-03T02:49:16.264Z,100429.19
2022-12-03T02:51:43.644Z,100425.78
2022-12-03T02:54:11.216Z,100433.59
2022-12-03T02:56:40.689Z,100433.69
2022-12-03T02:59:10.409Z,100443.25
2022-12-03T03:01:38.575Z,100438.03
2022-12-03T03:04:07.117Z,100436.31
2022-12-03T03:06:34.783Z,100428.41
2022-12-03T03:09:03.227Z,100432.03
2022-12-03T03:11:30.629Z,100433.66
2022-12-03T03:13:57.794Z,100428.38
2022-12-03T03:16:24.805Z,100436.22
2022-12-03T03:18:53.316Z,100429.31
2022-12-03T03:21:22.817Z,100430.19
2022-12-03T03:23:50.248Z,100423.25
2022-12-03T03:26:17.936Z,100420.94
2022-12-03T03:28:50.345Z,100416.50
2022-12-03T03:31:23.068Z,100414.75
2022-12-03T03:33:53.393Z,100416.56
2022-12-03T03:36:23.350Z,100414.81
2022-12-03T03:38:53.345Z,100414.75
2022-12-03T03:41:21.892Z,100417.41
2022-12-03T03:43:50.459Z,100420.13
2022-12-03T03:46:19.326Z,100418.22
2022-12-03T03:48:48.847Z,100430.25
2022-12-03T03:51:18.862Z,100421.75
2022-12-03T03:53:49.988Z,100425.16
2022-12-03T03:56:21.776Z,100431.97
2022-12-03T03:58:50.969Z,100423.25
2022-12-03T04:01:18.664Z,100419.94
2022-12-03T04:03:45.667Z,100413.16
2022-12-03T04:06:12.912Z,100404.31
2022-12-03T04:08:40.309Z,100409.69
2022-12-03T04:11:26.252Z,100401.81
2022-12-03T04:13:53.589Z,100401.72
2022-12-03T04:16:21.633Z,100405.94
2022-12-03T04:18:51.137Z,100406.84
2022-12-03T04:21:42.392Z,100407.84
2022-12-03T04:24:11.753Z,100407.09
2022-12-03T04:26:57.472Z,100407.81
2022-12-03T04:29:24.770Z,100411.22
2022-12-03T04:32:11.410Z,100408.69
2022-12-03T04:34:57.622Z,100404.34
2022-12-03T04:37:25.757Z,100407.88
2022-12-03T04:39:52.774Z,100404.06
2022-12-03T04:42:20.167Z,100395.56
2022-12-03T04:44:47.615Z,100398.94
2022-12-03T04:47:21.026Z,100395.47
2022-12-03T04:49:51.939Z,100394.53
2022-12-03T04:52:25.330Z,100385.88
2022-12-03T04:54:52.971Z,100384.09
2022-12-03T04:57:20.215Z,100385.66
2022-12-03T04:59:47.147Z,100390.03
2022-12-03T05:02:16.187Z,100372.94
2022-12-03T05:04:43.582Z,100383.28
2022-12-03T05:07:12.670Z,100384.03
2022-12-03T05:09:40.129Z,100384.97
2022-12-03T05:12:07.691Z,100385.81
2022-12-03T05:14:35.215Z,100381.59
2022-12-03T05:17:02.414Z,100394.47
2022-12-03T05:19:48.582Z,100396.41
2022-12-03T05:22:16.772Z,100393.84
2022-12-03T05:24:45.302Z,100397.41
2022-12-03T05:27:12.753Z,100397.44
2022-12-03T05:29:41.056Z,100394.03
2022-12-03T05:32:10.197Z,100390.59
2022-12-03T05:34:37.217Z,100393.16
2022-12-03T05:37:05.336Z,100389.63
2022-12-03T05:39:34.885Z,100391.25
2022-12-03T05:42:20.462Z,100388.81
2022-12-03T05:44:49.579Z,100391.47
2022-12-03T05:47:16.680Z,100390.44
2022-12-03T05:49:44.176Z,100388.84
2022-12-03T05:52:11.468Z,100393.94
2022-12-03T05:54:39.217Z,100380.88
2022-12-03T05:57:08.366Z,100387.03
2022-12-03T05:59:35.338Z,100395.59
2022-12-03T06:02:04.979Z,100387.78
2022-12-03T06:04:32.345Z,100383.50
2022-12-03T06:06:59.425Z,100392.22
2022-12-03T06:09:26.771Z,100387.91
2022-12-03T06:11:54.473Z,100389.69
2022-12-03T06:14:23.752Z,100390.50
2022-12-03T06:16:51.216Z,100400.03
2022-12-03T06:19:18.657Z,100394.03
2022-12-03T06:21:46.177Z,100399.31
2022-12-03T06:24:13.590Z,100402.03
2022-12-03T06:26:40.736Z,100403.66
2022-12-03T06:29:09.053Z,100407.13
2022-12-03T06:31:36.156Z,100410.59
2022-12-03T06:34:03.564Z,100402.84
2022-12-03T06:36:31.089Z,100414.88
2022-12-03T06:38:58.526Z,100415.03
2022-12-03T06:41:25.916Z,100416.00
2022-12-03T06:43:53.081Z,100413.47
2022-12-03T06:46:20.352Z,100416.13
2022-12-03T06:48:47.937Z,100415.25
2022-12-03T06:51:17.394Z,100404.91
2022-12-03T06:53:44.333Z,100407.44
2022-12-03T06:56:11.751Z,100410.06
2022-12-03T06:58:39.169Z,100404.75
2022-12-03T07:01:06.593Z,100408.97
2022-12-03T07:03:33.585Z,100412.38
2022-12-03T07:06:01.341Z,100408.06
2022-12-03T07:08:46.874Z,100403.97
2022-12-03T07:11:32.664Z,100414.56
2022-12-03T07:14:05.002Z,100410.19
2022-12-03T07:16:34.973Z,100408.56
2022-12-03T07:19:02.832Z,100409.47
2022-12-03T07:21:30.933Z,100405.91
2022-12-03T07:23:58.537Z,100408.56
2022-12-03T07:26:26.078Z,100397.28
2022-12-03T07:28:54.381Z,100395.59
2022-12-03T07:31:21.849Z,100398.09
2022-12-03T07:33:49.218Z,100397.34
2022-12-03T07:36:17.417Z,100391.13
2022-12-03T07:38:45.085Z,100393.72
2022-12-03T07:41:12.171Z,100384.19
2022-12-03T07:43:40.346Z,100386.78
2022-12-03T07:46:08.743Z,100398.06
2022-12-03T07:48:36.230Z,100386.91
2022-12-03T07:51:03.915Z,100385.97
2022-12-03T07:53:31.775Z,100393.78
2022-12-03T07:55:59.137Z,100385.78
2022-12-03T07:58:33.267Z,100381.50
2022-12-03T08:01:01.868Z,100370.22
2022-12-03T08:03:28.819Z,100359.03
2022-12-03T08:05:57.222Z,100356.63
2022-12-03T08:08:24.781Z,100351.50
2022-12-03T08:10:52.158Z,100364.59
2022-12-03T08:13:19.685Z,100379.34
2022-12-03T08:15:47.561Z,100371.41
2022-12-03T08:18:20.932Z,100367.16
2022-12-03T08:20:49.031Z,100369.78
2022-12-03T08:23:26.770Z,100377.59
2022-12-03T08:25:54.804Z,100373.34
2022-12-03T08:28:25.931Z,100372.56
2022-12-03T08:31:32.703Z,100382.25
2022-12-03T08:34:22.326Z,100370.00
2022-12-03T08:37:06.713Z,100372.72
2022-12-03T08:39:44.765Z,100376.13
2022-12-03T08:42:46.744Z,100382.22
2022-12-03T08:45:40.810Z,100366.59
2022-12-03T08:48:34.208Z,100369.28
2022-12-03T08:51:25.388Z,100358.97
2022-12-03T08:54:13.038Z,100360.66
2022-12-03T08:56:56.447Z,100373.59
2022-12-03T08:59:26.012Z,100375.25
2022-12-03T09:02:00.042Z,100381.31
2022-12-03T09:04:32.384Z,100370.06
2022-12-03T09:06:59.759Z,100375.28
2022-12-03T09:09:27.196Z,100370.22
2022-12-03T09:11:56.118Z,100369.34
2022-12-03T09:14:24.051Z,100378.03
2022-12-03T09:16:56.104Z,100373.66
2022-12-03T09:19:25.570Z,100375.38
2022-12-03T09:21:54.341Z,100365.00
2022-12-03T09:24:21.606Z,100367.50
2022-12-03T09:26:49.580Z,100364.03
2022-12-03T09:29:16.971Z,100379.78
2022-12-03T09:31:44.400Z,100377.97
2022-12-03T09:34:11.849Z,100380.66
2022-12-03T09:36:39.340Z,100382.34
2022-12-03T09:39:06.838Z,100371.91
2022-12-03T09:41:34.326Z,100375.41
2022-12-03T09:44:04.431Z,100376.25
2022-12-03T09:46:37.902Z,100370.44
2022-12-03T09:49:13.946Z,100366.13
2022-12-03T09:51:45.905Z,100366.00
2022-12-03T09:54:23.077Z,100368.59
2022-12-03T09:56:51.920Z,100368.69
2022-12-03T09:59:23.126Z,100362.66
2022-12-03T10:01:53.189Z,100354.00
2022-12-03T10:04:20.931Z,100355.72
2022-12-03T10:06:48.507Z,100367.88
2022-12-03T10:09:22.756Z,100359.13
2022-12-03T10:11:50.893Z,100366.06
2022-12-03T10:14:20.341Z,100354.84
2022-12-03T10:16:48.059Z,100350.50
2022-12-03T10:19:27.993Z,100348.81
2022-12-03T10:21:56.514Z,100346.19
2022-12-03T10:24:29.083Z,100347.97
2022-12-03T10:26:59.594Z,100343.63
2022-12-03T10:29:34.211Z,100341.03
2022-12-03T10:32:13.055Z,100346.34
2022-12-03T10:34:42.513Z,100339.38
2022-12-03T10:37:18.631Z,100343.59
2022-12-03T10:40:11.001Z,100339.34
2022-12-03T10:42:41.160Z,100337.59
2022-12-03T10:45:15.108Z,100337.63
2022-12-03T10:48:03.594Z,100347.09
2022-12-03T10:50:49.564Z,100332.38
2022-12-03T10:53:19.371Z,100328.94
2022-12-03T10:55:48.445Z,100335.03
2022-12-03T10:58:22.325Z,100335.06
2022-12-03T11:00:52.059Z,100328.13
2022-12-03T11:03:22.625Z,100330.72
2022-12-03T11:05:51.147Z,100329.00
2022-12-03T11:08:21.162Z,100333.28
2022-12-03T11:11:07.560Z,100336.81
2022-12-03T11:13:50.035Z,100335.97
2022-12-03T11:16:40.460Z,100323.84
2022-12-03T11:19:13.138Z,100325.59
2022-12-03T11:22:05.516Z,100334.31
2022-12-03T11:24:35.910Z,100323.88
2022-12-03T11:27:09.272Z,100292.66
2022-12-03T11:29:46.169Z,100293.56
2022-12-03T11:32:39.174Z,100290.97
2022-12-03T11:35:28.529Z,100301.34
2022-12-03T11:38:15.736Z,100310.00
2022-12-03T11:41:08.514Z,100303.91
2022-12-03T11:43:56.905Z,100294.31
2022-12-03T11:46:38.142Z,100300.38
2022-12-03T11:49:21.167Z,100296.97
2022-12-03T11:51:58.946Z,100293.50
2022-12-03T11:54:26.544Z,100297.03
2022-12-03T11:56:56.367Z,100300.41
2022-12-03T11:59:24.562Z,100289.03
2022-12-03T12:01:51.511Z,100291.59
2022-12-03T12:04:43.179Z,100285.50
2022-12-03T12:07:12.090Z,100284.63
2022-12-03T12:09:54.311Z,100281.19
2022-12-03T12:12:38.589Z,100289.00
2022-12-03T12:15:53.880Z,100277.72
2022-12-03T12:18:39.647Z,100281.22
2022-12-03T12:21:48.031Z,100289.03
2022-12-03T12:24:54.025Z,100282.97
2022-12-03T12:27:35.994Z,100272.56
2022-12-03T12:30:13.996Z,100274.22
2022-12-03T12:32:52.253Z,100264.72
2022-12-03T12:35:24.546Z,100266.47
2022-12-03T12:38:07.784Z,100269.09
2022-12-03T12:40:37.726Z,100267.31
2022-12-03T12:43:29.885Z,100263.91
2022-12-03T12:46:38.633Z,100257.84
2022-12-03T12:48:59.342Z,100247.34
2022-12-03T12:51:43.776Z,100251.72
2022-12-03T12:54:13.431Z,100244.78
2022-12-03T12:56:44.485Z,100252.63
2022-12-03T12:59:14.602Z,100250.91
2022-12-03T13:01:44.393Z,100258.69
2022-12-03T13:04:13.975Z,100258.72
2022-12-03T13:06:41.575Z,100253.50
2022-12-03T13:09:20.880Z,100251.78
2022-12-03T13:12:01.539Z,100248.28
2022-12-03T13:14:35.366Z,100248.28
2022-12-03T13:17:14.294Z,100248.28
2022-12-03T13:19:48.264Z,100251.75
2022-12-03T13:22:25.791Z,100258.69
2022-12-03T13:24:56.212Z,100252.63
2022-12-03T13:27:29.857Z,100241.34
2022-12-03T13:30:09.541Z,100250.03
2022-12-03T13:32:42.698Z,100261.34
2022-12-03T13:35:32.054Z,100263.88
2022-12-03T13:37:59.625Z,100259.56
2022-12-03T13:40:35.297Z,100253.47
2022-12-03T13:43:20.329Z,100250.88
2022-12-03T13:45:50.558Z,100255.22
2022-12-03T13:48:45.521Z,100249.09
2022-12-03T13:51:26.252Z,100255.22
2022-12-03T13:53:54.587Z,100253.47
2022-12-03T13:56:32.560Z,100256.09
2022-12-03T13:59:01.889Z,100261.31
2022-12-03T14:01:30.648Z,100260.44
2022-12-03T14:03:57.728Z,100253.44
2022-12-03T14:06:25.942Z,100260.44
2022-12-03T14:08:53.218Z,100253.50
2022-12-03T14:11:39.108Z,100253.50
2022-12-03T14:14:06.515Z,100249.16
2022-12-03T14:16:36.139Z,100250.91
2022-12-03T14:19:03.693Z,100252.63
2022-12-03T14:21:31.027Z,100255.22
2022-12-03T14:23:58.409Z,100257.00
2022-12-03T14:26:26.774Z,100259.56
2022-12-03T14:28:53.850Z,100258.75
2022-12-03T14:31:21.406Z,100263.09
2022-12-03T14:33:48.732Z,100260.50
2022-12-03T14:36:17.450Z,100253.50
2022-12-03T14:38:44.717Z,100253.56
2022-12-03T14:41:32.098Z,100247.47
2022-12-03T14:44:01.101Z,100246.63
2022-12-03T14:46:30.670Z,100254.41
2022-12-03T14:48:59.122Z,100250.13
2022-12-03T14:51:26.603Z,100250.09
2022-12-03T14:53:53.997Z,100250.97
2022-12-03T14:56:21.897Z,100257.03
2022-12-03T14:58:48.894Z,100251.84
2022-12-03T15:01:16.925Z,100263.16
2022-12-03T15:03:43.929Z,100264.00
2022-12-03T15:06:11.311Z,100260.53
2022-12-03T15:08:38.720Z,100256.16
2022-12-03T15:11:07.303Z,100250.94
2022-12-03T15:13:34.696Z,100245.72
2022-12-03T15:16:02.218Z,100248.34
2022-12-03T15:18:31.283Z,100255.28
2022-12-03T15:20:58.608Z,100257.03
2022-12-03T15:23:26.029Z,100261.41
2022-12-03T15:25:53.113Z,100265.72
2022-12-03T15:28:22.139Z,100270.13
2022-12-03T15:30:50.669Z,100264.00
2022-12-03T15:33:18.899Z,100268.38
2022-12-03T15:35:45.897Z,100264.00
2022-12-03T15:38:13.580Z,100264.00
2022-12-03T15:40:47.556Z,100266.59
2022-12-03T15:43:14.948Z,100258.81
2022-12-03T15:45:43.448Z,100259.66
2022-12-03T15:48:11.240Z,100267.47
2022-12-03T15:50:40.298Z,100260.50
2022-12-03T15:53:08.916Z,100264.00
2022-12-03T15:55:37.321Z,100267.47
2022-12-03T15:58:04.723Z,100264.00
2022-12-03T16:00:39.402Z,100264.88
2022-12-03T16:03:06.905Z,100249.22
2022-12-03T16:05:34.618Z,100264.88
2022-12-03T16:08:02.929Z,100258.78
2022-12-03T16:10:30.267Z,100256.16
2022-12-03T16:12:59.519Z,100259.63
2022-12-03T16:15:27.585Z,100272.66
2022-12-03T16:17:54.879Z,100268.25
2022-12-03T16:20:22.161Z,100269.13
2022-12-03T16:22:51.400Z,100272.59
2022-12-03T16:25:19.728Z,100269.09
2022-12-03T16:27:47.593Z,100266.50
2022-12-03T16:30:15.568Z,100260.47
2022-12-03T16:32:42.654Z,100269.16
2022-12-03T16:35:10.401Z,100265.69
2022-12-03T16:37:40.055Z,100258.75
2022-12-03T16:40:08.148Z,100267.44
2022-12-03T16:42:37.537Z,100257.00
2022-12-03T16:45:08.409Z,100262.28
2022-12-03T16:47:36.364Z,100262.25
2022-12-03T16:50:09.867Z,100256.16
2022-12-03T16:52:40.225Z,100264.00
2022-12-03T16:55:08.250Z,100254.44
2022-12-03T16:57:35.928Z,100254.44
2022-12-03T17:00:03.886Z,100250.06
2022-12-03T17:02:31.073Z,100252.69
2022-12-03T17:04:58.562Z,100255.28
2022-12-03T17:07:26.266Z,100247.47
2022-12-03T17:09:55.701Z,100256.16
2022-12-03T17:12:23.048Z,100246.59
2022-12-03T17:14:50.297Z,100246.59
2022-12-03T17:17:18.368Z,100244.84
2022-12-03T17:19:45.305Z,100237.88
2022-12-03T17:22:12.192Z,100234.41
2022-12-03T17:24:39.173Z,100239.59
2022-12-03T17:27:08.129Z,100237.00
2022-12-03T17:29:35.072Z,100229.97
2022-12-03T17:32:02.150Z,100236.03
2022-12-03T17:34:29.751Z,100234.31
2022-12-03T17:36:56.967Z,100242.19
2022-12-03T17:39:24.021Z,100242.16
2022-12-03T17:41:51.357Z,100237.00
2022-12-03T17:44:21.198Z,100236.09
2022-12-03T17:46:50.009Z,100236.06
2022-12-03T17:49:17.724Z,100238.72
2022-12-03T17:51:44.775Z,100236.97
2022-12-03T17:54:13.109Z,100237.84
2022-12-03T17:56:43.829Z,100232.66
2022-12-03T17:59:12.145Z,100237.84
2022-12-03T18:01:39.793Z,100230.88
2022-12-03T18:04:07.727Z,100225.69
2022-12-03T18:06:34.765Z,100216.97
2022-12-03T18:09:03.087Z,100215.19
2022-12-03T18:11:30.818Z,100223.03
2022-12-03T18:13:58.768Z,100216.97
2022-12-03T18:16:26.280Z,100217.84
2022-12-03T18:18:56.691Z,100215.25
2022-12-03T18:21:26.905Z,100210.03
2022-12-03T18:23:56.429Z,100210.03
2022-12-03T18:26:23.440Z,100207.41
2022-12-03T18:28:56.770Z,100211.75
2022-12-03T18:31:24.365Z,100214.34
2022-12-03T18:33:52.047Z,100208.28
2022-12-03T18:36:22.996Z,100209.13
2022-12-03T18:38:55.767Z,100220.41
2022-12-03T18:41:24.406Z,100211.69
2022-12-03T18:43:53.745Z,100215.16
2022-12-03T18:49:10.609Z,100221.28
2022-12-03T18:51:38.364Z,100223.88
2022-12-03T18:54:12.720Z,100221.25
2022-12-03T18:56:41.427Z,100224.75
2022-12-03T18:59:15.065Z,100220.41
2022-12-03T19:01:43.357Z,100218.69
2022-12-03T19:04:11.540Z,100219.53
2022-12-03T19:06:41.082Z,100229.06
2022-12-03T19:09:09.693Z,100229.94
2022-12-03T19:11:37.072Z,100221.25
2022-12-03T19:14:04.488Z,100225.56
2022-12-03T19:16:33.296Z,100226.44
2022-12-03T19:19:02.482Z,100224.72
2022-12-03T19:21:33.687Z,100228.22
2022-12-03T19:24:23.800Z,100226.47
2022-12-03T19:26:55.745Z,100225.63
2022-12-03T19:29:24.087Z,100227.38
2022-12-03T19:31:52.187Z,100228.22
2022-12-03T19:34:20.415Z,100224.69
2022-12-03T19:36:49.028Z,100231.66
2022-12-03T19:39:16.403Z,100227.31
2022-12-03T19:41:47.723Z,100234.22
2022-12-03T19:44:17.617Z,100229.91
2022-12-03T19:46:45.785Z,100231.66
2022-12-03T19:49:21.532Z,100236.00
2022-12-03T19:51:49.287Z,100230.78
2022-12-03T19:54:17.966Z,100228.16
2022-12-03T19:56:45.406Z,100229.00
2022-12-03T19:59:14.592Z,100226.44
2022-12-03T20:01:43.727Z,100229.94
2022-12-03T20:04:13.367Z,100229.88
2022-12-03T20:06:41.077Z,100230.81
2022-12-03T20:09:14.078Z,100229.91
2022-12-03T20:11:44.809Z,100219.50
2022-12-03T20:14:15.645Z,100215.13
2022-12-03T20:16:48.022Z,100219.44
2022-12-03T20:19:18.278Z,100219.47
2022-12-03T20:21:47.264Z,100217.72
2022-12-03T20:24:17.569Z,100225.53
2022-12-03T20:26:45.260Z,100224.59
2022-12-03T20:29:13.256Z,100222.03
2022-12-03T20:31:41.176Z,100233.34
2022-12-03T20:34:10.672Z,100232.44
2022-12-03T20:36:38.620Z,100235.09
2022-12-03T20:39:08.017Z,100226.41
2022-12-03T20:41:37.156Z,100235.03
2022-12-03T20:44:06.879Z,100239.41
2022-12-03T20:46:34.752Z,100236.78
2022-12-03T20:49:05.664Z,100229.84
2022-12-03T20:51:34.308Z,100224.63
2022-12-03T20:54:02.348Z,100225.56
2022-12-03T20:56:32.695Z,100229.03
2022-12-03T20:59:13.685Z,100233.34
2022-12-03T21:01:41.851Z,100224.69
2022-12-03T21:04:10.371Z,100220.34
2022-12-03T21:06:38.230Z,100228.16
2022-12-03T21:09:09.330Z,100209.88
2022-12-03T21:11:39.551Z,100208.09
2022-12-03T21:14:07.496Z,100204.63
2022-12-03T21:17:10.339Z,100200.31
2022-12-03T21:19:29.497Z,100195.91
2022-12-03T21:21:57.056Z,100189.84
2022-12-03T21:24:24.464Z,100188.09
2022-12-03T21:26:51.854Z,100188.94
2022-12-03T21:29:19.348Z,100196.75
2022-12-03T21:31:47.278Z,100202.81
2022-12-03T21:34:14.903Z,100193.28
2022-12-03T21:36:42.283Z,100190.66
2022-12-03T21:39:10.379Z,100200.19
2022-12-03T21:41:37.579Z,100200.97
2022-12-03T21:44:05.217Z,100197.50
2022-12-03T21:47:11.972Z,100215.78
2022-12-03T21:49:33.111Z,100206.19
2022-12-03T21:52:00.181Z,100210.47
2022-12-03T21:54:28.556Z,100203.59
2022-12-03T21:56:55.940Z,100210.50
2022-12-03T21:59:23.116Z,100207.06
2022-12-03T22:01:50.542Z,100212.31
2022-12-03T22:04:18.194Z,100209.75
2022-12-03T22:06:45.831Z,100211.44
2022-12-03T22:09:13.897Z,100213.16
2022-12-03T22:11:41.225Z,100207.97
2022-12-03T22:14:10.069Z,100209.63
2022-12-03T22:16:37.296Z,100202.72
2022-12-03T22:19:04.831Z,100200.19
2022-12-03T22:21:35.896Z,100195.78
2022-12-03T22:24:03.428Z,100186.25
2022-12-03T22:26:30.730Z,100185.44
2022-12-03T22:28:58.104Z,100189.75
2022-12-03T22:31:26.162Z,100191.53
2022-12-03T22:33:53.583Z,100185.44
2022-12-03T22:36:22.656Z,100185.44
2022-12-03T22:38:51.328Z,100175.00
2022-12-03T22:41:20.374Z,100181.94
2022-12-03T22:43:49.083Z,100175.00
2022-12-03T22:46:17.634Z,100185.38
2022-12-03T22:48:46.864Z,100181.94
2022-12-03T22:51:23.674Z,100186.28
2022-12-03T22:53:55.651Z,100179.31
2022-12-03T22:56:31.704Z,100170.66
2022-12-03T22:58:59.425Z,100184.53
2022-12-03T23:01:30.188Z,100184.56
2022-12-03T23:03:57.739Z,100175.91
2022-12-03T23:06:25.424Z,100163.78
2022-12-03T23:08:53.203Z,100166.38
2022-12-03T23:11:23.001Z,100160.28
2022-12-03T23:13:50.756Z,100146.38
2022-12-03T23:16:22.537Z,100152.44
2022-12-03T23:18:52.973Z,100142.00
2022-12-03T23:21:29.004Z,100140.28
2022-12-03T23:24:00.455Z,100141.19
2022-12-03T23:26:27.773Z,100142.94
2022-12-03T23:28:55.295Z,100142.94
2022-12-03T23:31:28.290Z,100141.19
2022-12-03T23:33:57.358Z,100140.31
2022-12-03T23:36:26.389Z,100142.94
2022-12-03T23:38:54.256Z,100132.53
2022-12-03T23:41:23.952Z,100130.78
2022-12-03T23:43:51.950Z,100123.00
2022-12-03T23:46:23.950Z,100119.50
2022-12-03T23:48:52.137Z,100124.69
2022-12-03T23:51:22.804Z,100115.16
2022-12-03T23:53:50.588Z,100116.84
2022-12-03T23:56:22.103Z,100119.50
2022-12-03T23:58:49.669Z,100116.03
